Time;durP1;ratioP1;P1;durP2;ratioP2;P2;SDS_P1;SDS_P2;PMS_P1;PMS_P2;Temp;Humidity;BMP_temperature;BMP_pressure;BME280_temperature;BME280_humidity;BME280_pressure;Samples;Min_cycle;Max_cycle;Signal;HPM_P1;HPM_P2
2022/12/29 00:02:01;;;;;;;3.60;2.47;;;;;;;;;;5024176;28;20217;-78
2022/12/29 00:05:06;;;;;;;2.83;1.90;;;;;;;;;;5012131;28;20201;-79
2022/12/29 00:08:10;;;;;;;3.97;1.97;;;;;;;;;;5022063;28;20217;-79
2022/12/29 00:11:20;;;;;;;3.00;2.20;;;;;;;;;;5010813;28;20217;-79
2022/12/29 00:17:47;;;;;;;5.17;2.50;;;;;;;;;;5010742;28;20637;-79
2022/12/29 00:44:35;;;;;;;3.07;2.40;;;;;;;;;;4995830;28;20186;-78
2022/12/29 00:47:39;;;;;;;3.23;2.30;;;;;;;;;;5006424;28;20221;-79
2022/12/29 00:50:43;;;;;;;2.83;2.30;;;;;;;;;;4996629;28;20637;-79
2022/12/29 00:53:47;;;;;;;3.77;2.50;;;;;;;;;;5007556;28;20185;-79
2022/12/29 00:56:52;;;;;;;2.40;1.80;;;;;;;;;;4997367;28;20510;-78
2022/12/29 00:59:56;;;;;;;2.17;1.60;;;;;;;;;;5018682;28;20618;-79
2022/12/29 01:03:00;;;;;;;2.57;1.77;;;;;;;;;;5018361;28;20220;-78
2022/12/29 01:06:09;;;;;;;3.50;1.50;;;;;;;;;;5019455;28;20205;-78
2022/12/29 01:12:41;;;;;;;1.90;1.27;;;;;;;;;;5018162;28;20221;-78
2022/12/29 01:15:52;;;;;;;1.83;1.20;;;;;;;;;;5006872;28;20190;-78
2022/12/29 01:18:56;;;;;;;2.33;1.40;;;;;;;;;;4995997;28;20197;-78
2022/12/29 01:22:01;;;;;;;3.47;1.30;;;;;;;;;;5018463;28;20225;-78
2022/12/29 01:25:06;;;;;;;1.90;1.07;;;;;;;;;;5018541;28;20177;-78
2022/12/29 01:28:11;;;;;;;1.50;1.10;;;;;;;;;;4995229;28;20688;-78
2022/12/29 01:31:16;;;;;;;3.77;1.30;;;;;;;;;;5006442;28;20216;-78
2022/12/29 01:34:20;;;;;;;2.00;1.40;;;;;;;;;;5007170;28;20177;-79
2022/12/29 01:37:24;;;;;;;2.30;1.30;;;;;;;;;;4995403;28;20182;-78
2022/12/29 01:40:28;;;;;;;2.10;1.30;;;;;;;;;;5007521;28;20174;-78
2022/12/29 01:43:49;;;;;;;2.17;1.30;;;;;;;;;;5007052;28;20177;-78
2022/12/29 01:46:53;;;;;;;3.13;1.53;;;;;;;;;;5017975;28;20178;-78
2022/12/29 01:50:04;;;;;;;1.97;1.70;;;;;;;;;;4994569;28;20173;-79
2022/12/29 01:53:35;;;;;;;5.30;1.60;;;;;;;;;;4995260;28;20221;-79
2022/12/29 01:56:40;;;;;;;2.50;1.30;;;;;;;;;;4984362;28;20181;-78
2022/12/29 01:59:56;;;;;;;2.20;1.40;;;;;;;;;;5005705;28;20174;-79
2022/12/29 02:03:00;;;;;;;1.53;1.00;;;;;;;;;;4995489;28;20221;-78
2022/12/29 02:06:15;;;;;;;2.80;0.93;;;;;;;;;;5018040;28;20197;-78
2022/12/29 02:09:19;;;;;;;1.63;0.80;;;;;;;;;;5005771;28;20213;-79
2022/12/29 02:12:24;;;;;;;1.47;1.10;;;;;;;;;;4982715;28;20209;-78
2022/12/29 02:15:40;;;;;;;1.83;0.90;;;;;;;;;;5017333;28;20189;-79
2022/12/29 02:18:56;;;;;;;0.77;0.77;;;;;;;;;;5016587;28;20178;-79
2022/12/29 02:22:10;;;;;;;2.30;1.07;;;;;;;;;;5005475;28;20213;-78
2022/12/29 02:25:27;;;;;;;1.63;0.93;;;;;;;;;;5016210;28;20186;-78
2022/12/29 02:28:59;;;;;;;1.13;0.97;;;;;;;;;;5004933;28;20213;-78
2022/12/29 02:32:08;;;;;;;1.20;0.80;;;;;;;;;;5005180;28;20216;-78
2022/12/29 02:35:23;;;;;;;2.30;1.00;;;;;;;;;;5004964;28;20178;-78
2022/12/29 02:38:27;;;;;;;2.60;1.10;;;;;;;;;;5005415;28;20181;-78
2022/12/29 02:41:32;;;;;;;1.33;0.97;;;;;;;;;;5005271;28;20217;-78
2022/12/29 02:44:52;;;;;;;2.17;1.03;;;;;;;;;;5017277;28;20181;-78
2022/12/29 02:48:17;;;;;;;1.00;0.90;;;;;;;;;;4983001;28;20209;-78
2022/12/29 02:51:38;;;;;;;1.80;1.00;;;;;;;;;;4983157;28;20221;-79
2022/12/29 02:54:43;;;;;;;1.57;0.80;;;;;;;;;;4995266;28;20178;-78
2022/12/29 02:57:48;;;;;;;2.67;0.90;;;;;;;;;;5005607;28;20185;-79
2022/12/29 03:00:55;;;;;;;1.33;0.90;;;;;;;;;;4994643;28;20181;-79
2022/12/29 03:04:35;;;;;;;3.50;0.97;;;;;;;;;;5017299;28;20201;-79
2022/12/29 03:08:06;;;;;;;2.67;0.80;;;;;;;;;;4994597;28;20186;-78
2022/12/29 03:18:20;;;;;;;1.07;0.77;;;;;;;;;;5009017;28;20631;-78
2022/12/29 03:25:07;;;;;;;2.73;0.80;;;;;;;;;;5008564;28;20181;-78
2022/12/29 03:28:20;;;;;;;1.10;0.87;;;;;;;;;;5008119;28;20665;-78
2022/12/29 03:31:25;;;;;;;2.27;0.73;;;;;;;;;;5007529;28;20688;-78
2022/12/29 03:34:33;;;;;;;1.93;0.80;;;;;;;;;;4996302;28;20637;-78
2022/12/29 03:38:03;;;;;;;1.83;1.00;;;;;;;;;;5008520;28;20177;-78
2022/12/29 03:41:14;;;;;;;2.00;0.73;;;;;;;;;;5018050;28;20625;-78
2022/12/29 03:44:18;;;;;;;1.07;0.73;;;;;;;;;;5007395;28;20181;-78
2022/12/29 03:47:24;;;;;;;1.27;0.90;;;;;;;;;;4996150;28;20174;-78
2022/12/29 03:50:28;;;;;;;1.93;0.63;;;;;;;;;;4996559;28;20534;-78
2022/12/29 03:53:33;;;;;;;1.03;0.73;;;;;;;;;;5006945;28;20181;-78
2022/12/29 03:56:38;;;;;;;1.67;0.70;;;;;;;;;;5007379;28;20186;-78
2022/12/29 03:59:42;;;;;;;1.57;0.80;;;;;;;;;;4984614;28;20173;-77
2022/12/29 04:02:46;;;;;;;1.00;0.63;;;;;;;;;;5006882;28;20217;-78
2022/12/29 04:05:56;;;;;;;1.87;0.70;;;;;;;;;;4996259;28;20205;-78
2022/12/29 04:09:01;;;;;;;2.10;0.70;;;;;;;;;;4995486;28;20217;-78
2022/12/29 04:12:07;;;;;;;4.07;1.00;;;;;;;;;;5006279;28;20220;-78
2022/12/29 04:15:13;;;;;;;1.53;0.90;;;;;;;;;;4995620;28;20181;-78
2022/12/29 04:18:17;;;;;;;1.87;0.83;;;;;;;;;;5006715;28;20181;-78
2022/12/29 04:21:22;;;;;;;1.17;0.73;;;;;;;;;;4995567;28;20221;-77
2022/12/29 04:24:27;;;;;;;1.17;0.60;;;;;;;;;;5006310;28;20197;-77
2022/12/29 04:27:32;;;;;;;0.90;0.80;;;;;;;;;;5005876;28;20197;-77
2022/12/29 04:30:53;;;;;;;1.53;1.03;;;;;;;;;;5006549;28;20174;-77
2022/12/29 04:34:00;;;;;;;1.33;0.80;;;;;;;;;;5017410;28;20202;-78
2022/12/29 04:37:05;;;;;;;1.07;0.70;;;;;;;;;;4983650;28;20201;-77
2022/12/29 04:40:10;;;;;;;3.77;0.90;;;;;;;;;;5005704;28;20524;-77
2022/12/29 04:43:15;;;;;;;2.37;0.70;;;;;;;;;;5017231;28;20217;-78
2022/12/29 04:46:37;;;;;;;0.60;0.60;;;;;;;;;;5006061;28;20182;-78
2022/12/29 04:49:46;;;;;;;1.30;0.70;;;;;;;;;;5005349;28;20209;-77
2022/12/29 04:53:20;;;;;;;1.70;0.80;;;;;;;;;;5017879;28;20177;-78
2022/12/29 04:56:24;;;;;;;0.60;0.60;;;;;;;;;;4994164;28;20181;-77
2022/12/29 04:59:28;;;;;;;1.40;0.87;;;;;;;;;;5005083;28;20177;-77
2022/12/29 05:02:36;;;;;;;3.63;0.80;;;;;;;;;;5004905;28;20217;-78
2022/12/29 05:05:41;;;;;;;1.50;0.83;;;;;;;;;;4993401;28;20209;-77
2022/12/29 05:08:45;;;;;;;1.40;0.80;;;;;;;;;;4993350;28;20209;-77
2022/12/29 05:11:50;;;;;;;2.20;0.70;;;;;;;;;;4987006;28;20214;-78
2022/12/29 05:14:54;;;;;;;1.17;0.80;;;;;;;;;;4985647;28;20178;-77
2022/12/29 05:17:58;;;;;;;1.70;0.90;;;;;;;;;;4985218;28;20186;-78
2022/12/29 05:21:02;;;;;;;4.87;1.23;;;;;;;;;;4986012;28;20174;-78
2022/12/29 05:24:07;;;;;;;1.17;0.80;;;;;;;;;;4984169;28;20182;-77
2022/12/29 05:27:11;;;;;;;1.30;0.90;;;;;;;;;;4984212;28;20190;-77
2022/12/29 05:30:35;;;;;;;1.80;0.80;;;;;;;;;;4983407;28;20551;-77
2022/12/29 05:33:39;;;;;;;1.03;0.67;;;;;;;;;;4995030;28;20206;-77
2022/12/29 05:36:43;;;;;;;1.37;0.80;;;;;;;;;;4996257;28;20205;-78
2022/12/29 05:39:49;;;;;;;1.20;0.90;;;;;;;;;;4994916;28;20622;-77
2022/12/29 05:42:54;;;;;;;1.33;0.70;;;;;;;;;;4994147;28;20218;-77
2022/12/29 05:46:16;;;;;;;1.40;0.80;;;;;;;;;;4993901;28;20182;-77
2022/12/29 05:49:40;;;;;;;1.57;0.80;;;;;;;;;;4994534;28;20214;-77
2022/12/29 05:53:05;;;;;;;2.30;0.70;;;;;;;;;;4977698;28;20226;-76
2022/12/29 05:56:09;;;;;;;1.80;0.90;;;;;;;;;;4983256;28;20507;-77
2022/12/29 05:59:13;;;;;;;2.33;0.77;;;;;;;;;;4971979;28;20198;-77
2022/12/29 06:02:18;;;;;;;1.70;0.80;;;;;;;;;;4993994;28;20573;-77
2022/12/29 06:05:22;;;;;;;1.40;0.80;;;;;;;;;;4972709;28;20538;-78
2022/12/29 06:08:26;;;;;;;2.00;0.80;;;;;;;;;;4990104;28;20183;-78
2022/12/29 06:11:31;;;;;;;1.43;0.80;;;;;;;;;;5001258;28;20214;-77
2022/12/29 06:14:36;;;;;;;1.40;0.73;;;;;;;;;;4998467;28;20175;-77
2022/12/29 06:17:42;;;;;;;1.50;0.67;;;;;;;;;;4976696;28;20174;-78
2022/12/29 06:20:46;;;;;;;0.90;0.70;;;;;;;;;;4986315;28;20197;-77
2022/12/29 06:23:50;;;;;;;3.03;0.83;;;;;;;;;;4986861;28;20182;-78
2022/12/29 06:26:54;;;;;;;0.80;0.70;;;;;;;;;;4998186;28;20177;-77
2022/12/29 06:29:59;;;;;;;1.83;0.70;;;;;;;;;;4985475;28;20230;-78
2022/12/29 06:33:04;;;;;;;2.07;0.80;;;;;;;;;;4996064;28;20213;-77
2022/12/29 06:36:08;;;;;;;0.90;0.80;;;;;;;;;;4984664;28;20626;-77
2022/12/29 06:39:12;;;;;;;1.40;0.70;;;;;;;;;;4995430;28;20179;-77
2022/12/29 06:42:17;;;;;;;1.20;0.80;;;;;;;;;;4983303;28;20681;-77
2022/12/29 06:45:27;;;;;;;1.57;1.03;;;;;;;;;;4994243;28;20634;-77
2022/12/29 06:48:31;;;;;;;0.97;0.87;;;;;;;;;;4982826;28;20186;-77
2022/12/29 06:51:35;;;;;;;1.43;1.33;;;;;;;;;;4994007;28;20209;-77
2022/12/29 06:54:40;;;;;;;1.33;0.80;;;;;;;;;;4994425;28;20534;-77
2022/12/29 06:57:43;;;;;;;4.43;2.07;;;;;;;;;;4971769;28;20182;-77
2022/12/29 07:00:48;;;;;;;2.70;2.50;;;;;;;;;;4982678;28;20178;-77
2022/12/29 07:03:52;;;;;;;3.30;1.97;;;;;;;;;;4994990;28;20528;-77
2022/12/29 07:06:56;;;;;;;2.03;1.47;;;;;;;;;;4982633;28;20175;-77
2022/12/29 07:10:00;;;;;;;1.80;1.10;;;;;;;;;;4994170;28;20209;-77
2022/12/29 07:13:04;;;;;;;1.70;1.20;;;;;;;;;;4994373;28;20689;-77
2022/12/29 07:16:10;;;;;;;4.60;1.43;;;;;;;;;;4993431;28;20218;-77
2022/12/29 07:19:14;;;;;;;4.13;1.47;;;;;;;;;;4981929;28;20646;-77
2022/12/29 07:22:18;;;;;;;2.10;1.50;;;;;;;;;;4993688;28;20214;-77
2022/12/29 07:25:23;;;;;;;3.40;1.20;;;;;;;;;;4993411;28;20539;-77
2022/12/29 07:28:27;;;;;;;3.80;1.50;;;;;;;;;;4982593;28;20186;-77
2022/12/29 07:31:31;;;;;;;1.87;1.23;;;;;;;;;;4970976;28;20206;-77
2022/12/29 07:34:34;;;;;;;1.57;1.00;;;;;;;;;;4993849;28;20194;-77
2022/12/29 07:37:39;;;;;;;2.57;1.07;;;;;;;;;;4993631;28;20198;-77
2022/12/29 07:40:43;;;;;;;1.90;0.83;;;;;;;;;;4992920;28;20174;-77
2022/12/29 07:43:48;;;;;;;1.63;1.17;;;;;;;;;;4993670;28;20186;-77
2022/12/29 07:47:22;;;;;;;2.37;1.23;;;;;;;;;;4999885;28;20186;-79
2022/12/29 07:50:26;;;;;;;2.87;1.40;;;;;;;;;;4993844;28;20214;-77
2022/12/29 07:53:30;;;;;;;1.77;1.10;;;;;;;;;;4982095;28;20193;-77
2022/12/29 07:56:34;;;;;;;2.70;1.30;;;;;;;;;;4972059;28;20182;-78
2022/12/29 07:59:38;;;;;;;1.80;1.13;;;;;;;;;;4987099;28;20197;-78
2022/12/29 08:02:43;;;;;;;2.13;1.30;;;;;;;;;;4986547;28;20218;-77
2022/12/29 08:05:47;;;;;;;4.40;1.67;;;;;;;;;;4986430;28;20206;-78
2022/12/29 08:08:51;;;;;;;2.87;1.20;;;;;;;;;;4996658;28;20186;-78
2022/12/29 08:11:55;;;;;;;1.80;1.20;;;;;;;;;;4986564;28;20213;-78
2022/12/29 08:14:59;;;;;;;3.80;1.33;;;;;;;;;;4998551;28;20182;-78
2022/12/29 08:18:03;;;;;;;1.83;1.43;;;;;;;;;;4999294;28;20178;-78
2022/12/29 08:21:07;;;;;;;3.13;1.50;;;;;;;;;;4999136;28;20174;-78
2022/12/29 08:24:11;;;;;;;2.60;2.03;;;;;;;;;;4997335;28;20178;-78
2022/12/29 08:27:16;;;;;;;5.53;1.50;;;;;;;;;;4987131;28;20202;-77
2022/12/29 08:30:20;;;;;;;2.33;1.53;;;;;;;;;;4986203;28;20206;-77
2022/12/29 08:33:24;;;;;;;2.30;1.50;;;;;;;;;;4986058;28;20182;-77
2022/12/29 08:36:28;;;;;;;1.73;1.37;;;;;;;;;;4998846;28;20186;-78
2022/12/29 08:39:32;;;;;;;3.33;1.53;;;;;;;;;;4986898;28;20178;-78
2022/12/29 08:42:36;;;;;;;1.93;1.40;;;;;;;;;;4998915;28;20214;-78
2022/12/29 08:45:40;;;;;;;1.30;1.20;;;;;;;;;;4986260;28;20201;-78
2022/12/29 08:48:45;;;;;;;1.97;1.53;;;;;;;;;;4985750;28;20527;-78
2022/12/29 08:51:49;;;;;;;2.77;1.60;;;;;;;;;;4974151;28;20209;-78
2022/12/29 08:54:53;;;;;;;3.60;1.40;;;;;;;;;;4996712;28;20178;-78
2022/12/29 08:57:58;;;;;;;3.00;1.37;;;;;;;;;;4997251;28;20174;-78
2022/12/29 09:01:02;;;;;;;3.30;1.20;;;;;;;;;;4973934;28;20547;-77
2022/12/29 09:04:07;;;;;;;3.33;1.33;;;;;;;;;;4983769;28;20201;-77
2022/12/29 09:07:11;;;;;;;4.27;1.37;;;;;;;;;;4985984;28;20205;-78
2022/12/29 09:10:15;;;;;;;2.13;1.20;;;;;;;;;;4984963;28;20209;-78
2022/12/29 09:13:20;;;;;;;3.33;1.17;;;;;;;;;;4997131;28;20174;-78
2022/12/29 09:16:24;;;;;;;6.43;1.60;;;;;;;;;;4996595;28;20227;-78
2022/12/29 09:19:30;;;;;;;2.97;1.30;;;;;;;;;;4985977;28;20185;-78
2022/12/29 09:22:35;;;;;;;2.13;1.20;;;;;;;;;;4996491;28;20218;-78
2022/12/29 09:25:39;;;;;;;3.47;1.10;;;;;;;;;;4973135;28;20182;-77
2022/12/29 09:28:44;;;;;;;2.40;1.33;;;;;;;;;;4983533;28;20182;-77
2022/12/29 09:31:48;;;;;;;4.80;1.50;;;;;;;;;;4995380;28;20233;-77
2022/12/29 09:34:52;;;;;;;1.80;1.00;;;;;;;;;;4995780;28;20202;-77
2022/12/29 09:37:56;;;;;;;3.00;1.20;;;;;;;;;;4995985;28;20194;-78
2022/12/29 09:41:12;;;;;;;3.87;1.50;;;;;;;;;;4996258;28;20178;-78
2022/12/29 09:44:22;;;;;;;4.03;1.50;;;;;;;;;;4984715;28;20194;-78
2022/12/29 09:47:28;;;;;;;2.10;1.20;;;;;;;;;;4997098;28;20182;-78
2022/12/29 09:50:36;;;;;;;3.07;1.37;;;;;;;;;;4974621;28;20226;-78
2022/12/29 09:53:50;;;;;;;3.37;1.37;;;;;;;;;;4987133;28;20547;-78
2022/12/29 09:56:55;;;;;;;7.83;1.60;;;;;;;;;;4985989;28;20182;-79
2022/12/29 10:00:06;;;;;;;5.23;1.70;;;;;;;;;;4984630;28;20174;-77
2022/12/29 10:03:20;;;;;;;3.07;1.40;;;;;;;;;;4985010;28;20179;-78
2022/12/29 10:06:33;;;;;;;5.37;1.70;;;;;;;;;;4985080;28;20197;-77
2022/12/29 10:10:01;;;;;;;2.70;1.50;;;;;;;;;;4983703;28;20527;-77
2022/12/29 10:13:31;;;;;;;3.27;1.50;;;;;;;;;;4997427;28;20217;-78
2022/12/29 10:17:07;;;;;;;3.13;1.23;;;;;;;;;;4992588;28;20197;-78
2022/12/29 10:20:26;;;;;;;3.33;1.33;;;;;;;;;;4985179;28;20194;-77
2022/12/29 10:23:43;;;;;;;5.00;1.40;;;;;;;;;;4984689;28;20531;-78
2022/12/29 10:26:51;;;;;;;4.10;2.07;;;;;;;;;;4984829;28;20182;-77
2022/12/29 10:29:57;;;;;;;6.00;1.40;;;;;;;;;;4984032;28;20178;-77
2022/12/29 10:33:07;;;;;;;3.13;1.20;;;;;;;;;;4983212;28;20218;-78
2022/12/29 10:36:23;;;;;;;1.70;1.17;;;;;;;;;;4983308;28;20186;-77
2022/12/29 10:39:36;;;;;;;3.90;1.10;;;;;;;;;;4995548;28;20182;-78
2022/12/29 10:42:44;;;;;;;3.57;1.13;;;;;;;;;;4996543;28;20214;-78
2022/12/29 10:45:49;;;;;;;1.83;1.10;;;;;;;;;;4984822;28;20178;-78
2022/12/29 10:48:53;;;;;;;3.73;1.43;;;;;;;;;;4996054;28;20514;-77
2022/12/29 10:52:02;;;;;;;2.73;0.93;;;;;;;;;;4983980;28;20233;-77
2022/12/29 10:55:22;;;;;;;2.33;1.20;;;;;;;;;;4995654;28;20182;-77
2022/12/29 10:58:29;;;;;;;1.83;1.67;;;;;;;;;;4995652;28;20186;-77
2022/12/29 11:01:42;;;;;;;3.13;1.10;;;;;;;;;;4994263;28;20209;-78
2022/12/29 11:05:28;;;;;;;2.43;1.17;;;;;;;;;;4985405;28;20665;-77
2022/12/29 11:08:41;;;;;;;4.53;1.07;;;;;;;;;;5000030;28;20634;-79
2022/12/29 11:11:45;;;;;;;1.53;1.20;;;;;;;;;;4997901;28;20234;-78
2022/12/29 11:15:13;;;;;;;1.10;0.90;;;;;;;;;;4984998;28;20618;-78
2022/12/29 11:18:24;;;;;;;1.93;0.80;;;;;;;;;;4986280;28;20177;-78
2022/12/29 11:21:34;;;;;;;2.67;0.90;;;;;;;;;;4973414;28;20214;-78
2022/12/29 11:24:45;;;;;;;2.07;0.90;;;;;;;;;;4985901;28;20186;-78
2022/12/29 11:28:12;;;;;;;2.23;1.13;;;;;;;;;;4997390;28;20187;-79
2022/12/29 11:31:17;;;;;;;2.63;0.90;;;;;;;;;;4986354;28;20238;-78
2022/12/29 11:34:25;;;;;;;0.83;0.60;;;;;;;;;;4989947;28;20202;-78
2022/12/29 11:37:38;;;;;;;1.63;0.80;;;;;;;;;;5001716;28;20622;-78
2022/12/29 11:40:43;;;;;;;2.77;1.07;;;;;;;;;;5001315;28;20194;-78
2022/12/29 11:43:47;;;;;;;2.80;1.20;;;;;;;;;;5000600;28;20523;-78
2022/12/29 11:46:52;;;;;;;5.20;1.20;;;;;;;;;;5000900;28;20182;-78
2022/12/29 11:49:59;;;;;;;3.40;0.90;;;;;;;;;;5000865;28;20535;-78
2022/12/29 11:53:15;;;;;;;1.00;0.90;;;;;;;;;;4989082;28;20214;-77
2022/12/29 11:56:32;;;;;;;2.10;1.00;;;;;;;;;;4998821;28;20179;-78
2022/12/29 11:59:40;;;;;;;4.70;1.10;;;;;;;;;;5000633;28;20187;-78
2022/12/29 12:02:54;;;;;;;0.83;0.73;;;;;;;;;;4999480;28;20214;-78
2022/12/29 12:06:03;;;;;;;2.40;0.90;;;;;;;;;;4998877;28;20210;-78
2022/12/29 12:09:14;;;;;;;1.13;0.93;;;;;;;;;;4987576;28;20187;-78
2022/12/29 12:12:30;;;;;;;1.77;1.20;;;;;;;;;;4989723;28;20237;-78
2022/12/29 12:15:47;;;;;;;2.37;1.33;;;;;;;;;;4988905;28;20190;-78
2022/12/29 12:19:17;;;;;;;4.53;1.20;;;;;;;;;;4987952;28;20183;-78
2022/12/29 12:22:27;;;;;;;1.47;0.90;;;;;;;;;;5000013;28;20214;-78
2022/12/29 12:25:38;;;;;;;2.87;0.90;;;;;;;;;;5000791;28;20183;-78
2022/12/29 12:28:51;;;;;;;2.10;1.03;;;;;;;;;;4987564;28;20191;-78
2022/12/29 12:32:12;;;;;;;1.80;1.00;;;;;;;;;;4975916;28;20222;-78
2022/12/29 12:35:37;;;;;;;1.10;0.80;;;;;;;;;;4986856;28;20182;-77
2022/12/29 12:38:44;;;;;;;2.33;0.90;;;;;;;;;;4975961;28;20186;-78
2022/12/29 12:42:08;;;;;;;1.37;0.80;;;;;;;;;;4997773;28;20214;-78
2022/12/29 12:45:34;;;;;;;2.63;1.27;;;;;;;;;;4997356;28;20190;-77
2022/12/29 12:48:54;;;;;;;1.40;0.90;;;;;;;;;;4984127;28;20183;-77
2022/12/29 12:52:21;;;;;;;1.47;0.90;;;;;;;;;;4996496;28;20694;-77
2022/12/29 12:55:49;;;;;;;1.83;1.10;;;;;;;;;;4984195;28;20178;-77
2022/12/29 12:59:13;;;;;;;1.00;0.60;;;;;;;;;;4995657;28;20190;-78
2022/12/29 13:02:35;;;;;;;0.77;0.60;;;;;;;;;;4995789;28;20213;-77
2022/12/29 13:05:53;;;;;;;3.97;1.40;;;;;;;;;;4984088;28;20677;-78
2022/12/29 13:09:13;;;;;;;2.40;1.07;;;;;;;;;;4983614;28;20619;-78
2022/12/29 13:12:24;;;;;;;1.57;1.00;;;;;;;;;;4984424;28;20230;-77
2022/12/29 13:15:46;;;;;;;1.33;0.80;;;;;;;;;;4983797;28;20193;-77
2022/12/29 13:19:15;;;;;;;3.00;0.90;;;;;;;;;;4984637;28;20179;-78
2022/12/29 13:22:47;;;;;;;1.43;1.07;;;;;;;;;;4995525;28;20213;-77
2022/12/29 13:26:01;;;;;;;6.17;4.30;;;;;;;;;;4995023;28;20182;-77
2022/12/29 13:29:20;;;;;;;4.33;1.80;;;;;;;;;;4994396;28;20183;-77
2022/12/29 13:32:30;;;;;;;2.43;1.23;;;;;;;;;;4994867;28;20230;-78
2022/12/29 13:35:59;;;;;;;3.17;1.40;;;;;;;;;;4995089;28;20190;-78
2022/12/29 13:39:46;;;;;;;11.40;7.10;;;;;;;;;;4994844;28;20182;-77
2022/12/29 13:42:53;;;;;;;14.83;11.87;;;;;;;;;;4942941;29;20235;-77
2022/12/29 13:46:07;;;;;;;3.13;1.70;;;;;;;;;;4954279;29;20591;-77
2022/12/29 13:49:24;;;;;;;3.63;1.23;;;;;;;;;;4983444;28;20198;-77
2022/12/29 13:52:39;;;;;;;4.37;1.10;;;;;;;;;;4995595;28;20226;-77
2022/12/29 13:55:57;;;;;;;3.27;1.90;;;;;;;;;;4995127;28;20187;-77
2022/12/29 13:59:31;;;;;;;1.60;1.00;;;;;;;;;;4994728;28;20186;-77
2022/12/29 14:02:45;;;;;;;3.17;2.17;;;;;;;;;;4994900;28;20222;-77
2022/12/29 14:06:14;;;;;;;6.23;3.50;;;;;;;;;;4993828;28;20669;-77
2022/12/29 14:09:48;;;;;;;2.33;1.83;;;;;;;;;;4994765;28;20189;-77
2022/12/29 14:13:01;;;;;;;21.73;18.40;;;;;;;;;;4994904;28;20229;-79
2022/12/29 14:16:07;;;;;;;23.37;21.03;;;;;;;;;;4993944;28;20201;-77
2022/12/29 14:19:19;;;;;;;4.40;3.83;;;;;;;;;;4995477;28;20185;-77
2022/12/29 14:22:26;;;;;;;4.17;1.50;;;;;;;;;;5000223;28;20210;-77
2022/12/29 14:25:55;;;;;;;2.10;1.00;;;;;;;;;;5000118;28;20186;-77
2022/12/29 14:29:21;;;;;;;2.37;0.83;;;;;;;;;;4999365;28;20178;-77
2022/12/29 14:32:25;;;;;;;1.77;0.90;;;;;;;;;;4986886;28;20226;-77
2022/12/29 14:35:49;;;;;;;4.17;1.10;;;;;;;;;;4998508;28;20174;-77
2022/12/29 14:38:53;;;;;;;2.40;2.07;;;;;;;;;;4986496;28;20186;-77
2022/12/29 14:42:03;;;;;;;205.90;107.10;;;;;;;;;;4997918;28;20554;-77
2022/12/29 14:45:29;;;;;;;144.47;78.67;;;;;;;;;;4998058;28;20198;-77
2022/12/29 14:48:40;;;;;;;150.40;94.43;;;;;;;;;;4996786;28;20644;-78
2022/12/29 14:51:46;;;;;;;50.10;36.47;;;;;;;;;;4996283;28;20229;-77
2022/12/29 14:54:57;;;;;;;37.07;33.23;;;;;;;;;;4996025;28;20193;-77
2022/12/29 14:58:04;;;;;;;3.67;3.37;;;;;;;;;;4995237;28;20639;-77
2022/12/29 15:01:29;;;;;;;4.67;1.90;;;;;;;;;;4995098;28;20178;-77
2022/12/29 15:04:35;;;;;;;5.20;4.30;;;;;;;;;;4983229;28;20202;-77
2022/12/29 15:07:40;;;;;;;15.73;11.67;;;;;;;;;;4984485;28;20630;-77
2022/12/29 15:10:54;;;;;;;8.63;5.90;;;;;;;;;;4998799;28;20196;-78
2022/12/29 15:13:58;;;;;;;29.63;16.73;;;;;;;;;;4998380;28;20183;-77
2022/12/29 15:17:11;;;;;;;38.70;25.90;;;;;;;;;;4998861;28;20189;-78
2022/12/29 15:20:31;;;;;;;19.33;13.50;;;;;;;;;;4988175;28;20193;-77
2022/12/29 15:23:37;;;;;;;22.67;16.97;;;;;;;;;;4975530;28;20542;-77
2022/12/29 15:26:45;;;;;;;8.93;5.53;;;;;;;;;;4998190;28;20186;-77
2022/12/29 15:30:01;;;;;;;6.83;5.03;;;;;;;;;;4999258;28;20182;-78
2022/12/29 15:33:21;;;;;;;12.27;10.87;;;;;;;;;;4997780;28;20226;-78
2022/12/29 15:36:28;;;;;;;8.37;6.93;;;;;;;;;;4997993;28;20197;-78
2022/12/29 15:39:33;;;;;;;5.60;4.30;;;;;;;;;;4975957;28;20182;-78
2022/12/29 15:42:56;;;;;;;25.13;22.53;;;;;;;;;;4997395;28;20250;-78
2022/12/29 15:46:02;;;;;;;6.63;2.50;;;;;;;;;;4987949;28;20198;-77
2022/12/29 15:49:14;;;;;;;3.20;1.50;;;;;;;;;;4998287;28;20186;-77
2022/12/29 15:52:23;;;;;;;4.40;1.17;;;;;;;;;;4986484;28;20218;-77
2022/12/29 15:55:36;;;;;;;4.53;1.37;;;;;;;;;;4999048;28;20182;-77
2022/12/29 15:58:47;;;;;;;3.53;2.23;;;;;;;;;;4987230;28;20519;-77
2022/12/29 16:01:51;;;;;;;5.07;3.23;;;;;;;;;;4997174;28;20559;-77
2022/12/29 16:04:55;;;;;;;20.07;14.47;;;;;;;;;;4986532;28;20210;-77
2022/12/29 16:08:00;;;;;;;12.83;8.80;;;;;;;;;;4997726;28;20187;-77
2022/12/29 16:11:21;;;;;;;10.77;6.30;;;;;;;;;;4998719;28;20182;-77
2022/12/29 16:14:34;;;;;;;7.40;4.90;;;;;;;;;;4986074;28;20523;-78
2022/12/29 16:17:48;;;;;;;8.57;5.20;;;;;;;;;;4997153;28;20183;-77
2022/12/29 16:20:54;;;;;;;36.53;21.80;;;;;;;;;;4987332;28;20183;-78
2022/12/29 16:24:06;;;;;;;40.80;24.37;;;;;;;;;;4976554;28;20174;-78
2022/12/29 16:27:26;;;;;;;10.47;7.20;;;;;;;;;;4999644;28;20217;-78
2022/12/29 16:30:32;;;;;;;6.57;4.50;;;;;;;;;;4987919;28;20182;-78
2022/12/29 16:33:39;;;;;;;8.10;4.63;;;;;;;;;;4999036;28;20206;-77
2022/12/29 16:37:32;;;;;;;4.57;3.30;;;;;;;;;;4987329;28;20334;-78
2022/12/29 16:40:39;;;;;;;3.20;1.90;;;;;;;;;;4991211;28;20202;-78
2022/12/29 16:43:43;;;;;;;2.33;2.00;;;;;;;;;;4998967;28;20171;-78
2022/12/29 16:47:00;;;;;;;32.63;22.43;;;;;;;;;;4998436;28;20182;-78
2022/12/29 16:50:21;;;;;;;37.67;30.97;;;;;;;;;;4986752;28;20186;-78
2022/12/29 16:53:48;;;;;;;24.43;21.97;;;;;;;;;;4987450;28;20214;-77
2022/12/29 16:56:53;;;;;;;7.07;5.30;;;;;;;;;;4987640;28;20179;-77
2022/12/29 17:00:00;;;;;;;3.77;3.30;;;;;;;;;;4998985;28;20186;-78
2022/12/29 17:03:05;;;;;;;3.20;2.47;;;;;;;;;;4987395;28;20214;-78
2022/12/29 17:06:15;;;;;;;2.33;1.80;;;;;;;;;;4999111;28;20201;-78
2022/12/29 17:09:21;;;;;;;2.10;1.73;;;;;;;;;;4997772;28;20182;-78
2022/12/29 17:12:28;;;;;;;2.43;1.60;;;;;;;;;;4997320;28;20226;-77
2022/12/29 17:15:34;;;;;;;2.37;1.50;;;;;;;;;;4986226;28;20174;-77
2022/12/29 17:18:38;;;;;;;2.50;1.50;;;;;;;;;;4986225;28;20175;-78
2022/12/29 17:21:43;;;;;;;1.93;1.20;;;;;;;;;;4985676;28;20218;-77
2022/12/29 17:24:47;;;;;;;1.87;1.00;;;;;;;;;;4997358;28;20197;-77
2022/12/29 17:27:55;;;;;;;4.87;3.83;;;;;;;;;;4997556;28;20197;-77
2022/12/29 17:31:02;;;;;;;12.03;9.40;;;;;;;;;;4997002;28;20182;-77
2022/12/29 17:34:07;;;;;;;4.43;3.00;;;;;;;;;;4996281;28;20210;-78
2022/12/29 17:37:34;;;;;;;6.47;3.73;;;;;;;;;;4986186;28;20641;-78
2022/12/29 17:40:38;;;;;;;4.10;2.10;;;;;;;;;;4998019;28;20183;-78
2022/12/29 17:43:42;;;;;;;3.77;3.07;;;;;;;;;;4974186;28;20178;-78
2022/12/29 17:46:47;;;;;;;4.27;3.00;;;;;;;;;;4997515;28;20625;-77
2022/12/29 17:49:51;;;;;;;9.80;8.40;;;;;;;;;;4985566;28;20527;-78
2022/12/29 17:52:58;;;;;;;4.40;4.00;;;;;;;;;;4984808;28;20222;-78
2022/12/29 17:56:02;;;;;;;4.13;2.30;;;;;;;;;;4986127;28;20202;-78
2022/12/29 17:59:12;;;;;;;4.53;1.73;;;;;;;;;;4996769;28;20182;-78
2022/12/29 18:02:28;;;;;;;3.07;1.70;;;;;;;;;;4996856;28;20559;-77
2022/12/29 18:05:32;;;;;;;4.30;1.50;;;;;;;;;;4996723;28;20547;-77
2022/12/29 18:08:38;;;;;;;2.90;1.50;;;;;;;;;;4997495;28;20190;-78
2022/12/29 18:11:43;;;;;;;3.30;1.67;;;;;;;;;;4996802;28;20213;-77
2022/12/29 18:14:47;;;;;;;3.10;1.57;;;;;;;;;;4985538;28;20174;-77
2022/12/29 18:18:00;;;;;;;4.00;2.07;;;;;;;;;;4985710;28;20178;-77
2022/12/29 18:21:04;;;;;;;3.23;1.40;;;;;;;;;;4995777;28;20225;-78
2022/12/29 18:24:14;;;;;;;2.53;1.47;;;;;;;;;;4985971;28;20174;-78
2022/12/29 18:27:18;;;;;;;2.23;1.60;;;;;;;;;;4997421;28;20534;-78
2022/12/29 18:30:22;;;;;;;2.03;1.73;;;;;;;;;;4996316;28;20197;-78
2022/12/29 18:33:27;;;;;;;13.03;10.23;;;;;;;;;;4984668;28;20210;-78
2022/12/29 18:36:32;;;;;;;18.37;14.53;;;;;;;;;;4984609;28;20542;-77
2022/12/29 18:39:36;;;;;;;45.93;24.93;;;;;;;;;;4995770;28;20533;-77
2022/12/29 18:42:40;;;;;;;46.23;23.17;;;;;;;;;;4984403;28;20222;-77
2022/12/29 18:45:45;;;;;;;48.67;25.50;;;;;;;;;;4985130;28;20185;-77
2022/12/29 18:48:50;;;;;;;28.43;16.80;;;;;;;;;;4996678;28;20544;-77
2022/12/29 18:51:55;;;;;;;15.27;10.63;;;;;;;;;;4985237;28;20585;-78
2022/12/29 18:54:58;;;;;;;13.27;6.80;;;;;;;;;;4997080;28;20181;-77
2022/12/29 18:58:03;;;;;;;3.10;2.10;;;;;;;;;;4996134;28;20182;-78
2022/12/29 19:01:20;;;;;;;6.17;1.90;;;;;;;;;;4995782;28;20182;-78
2022/12/29 19:04:24;;;;;;;2.30;1.73;;;;;;;;;;4996316;28;20182;-78
2022/12/29 19:07:28;;;;;;;4.47;1.30;;;;;;;;;;4996769;28;20186;-78
2022/12/29 19:10:33;;;;;;;1.97;1.37;;;;;;;;;;4996975;28;20178;-77
2022/12/29 19:13:39;;;;;;;2.73;1.43;;;;;;;;;;4985261;28;20206;-78
2022/12/29 19:16:48;;;;;;;2.07;1.30;;;;;;;;;;4997219;28;20182;-78
2022/12/29 19:19:53;;;;;;;9.57;5.70;;;;;;;;;;4996823;28;20178;-77
2022/12/29 19:22:59;;;;;;;4.33;2.70;;;;;;;;;;4973632;28;20209;-78
2022/12/29 19:26:03;;;;;;;13.90;11.50;;;;;;;;;;4983793;28;20634;-77
2022/12/29 19:29:14;;;;;;;6.93;4.70;;;;;;;;;;4996658;28;20661;-77
2022/12/29 19:32:18;;;;;;;12.57;8.77;;;;;;;;;;4984871;28;20222;-78
2022/12/29 19:35:25;;;;;;;2.53;1.67;;;;;;;;;;4984602;28;20515;-78
2022/12/29 19:38:29;;;;;;;2.23;1.80;;;;;;;;;;4995330;28;20182;-78